sensor_id;sensor_type;location;lat;lon;timestamp;pressure;altitude;pressure_sealevel;temperature;humidity
69574;BME280;62840;52.366;5.980;2024-03-22T00:00:54;101958.19;;;11.14;69.60
69574;BME280;62840;52.366;5.980;2024-03-22T00:03:19;101954.56;;;11.15;69.66
69574;BME280;62840;52.366;5.980;2024-03-22T00:05:45;101953.50;;;11.17;69.50
69574;BME280;62840;52.366;5.980;2024-03-22T00:08:11;101952.44;;;11.20;69.66
69574;BME280;62840;52.366;5.980;2024-03-22T00:10:37;101950.50;;;11.22;69.59
69574;BME280;62840;52.366;5.980;2024-03-22T00:13:03;101943.25;;;11.24;69.61
69574;BME280;62840;52.366;5.980;2024-03-22T00:15:31;101939.63;;;11.25;69.56
69574;BME280;62840;52.366;5.980;2024-03-22T00:17:57;101935.03;;;11.27;69.61
69574;BME280;62840;52.366;5.980;2024-03-22T00:20:23;101924.34;;;11.27;69.79
69574;BME280;62840;52.366;5.980;2024-03-22T00:22:49;101921.66;;;11.27;69.80
69574;BME280;62840;52.366;5.980;2024-03-22T00:25:15;101916.13;;;11.30;69.90
69574;BME280;62840;52.366;5.980;2024-03-22T00:27:41;101912.50;;;11.31;69.89
69574;BME280;62840;52.366;5.980;2024-03-22T00:30:08;101911.56;;;11.32;69.70
69574;BME280;62840;52.366;5.980;2024-03-22T00:32:37;101922.09;;;11.34;70.06
69574;BME280;62840;52.366;5.980;2024-03-22T00:35:03;101914.00;;;11.35;69.93
69574;BME280;62840;52.366;5.980;2024-03-22T00:37:29;101917.41;;;11.37;70.00
69574;BME280;62840;52.366;5.980;2024-03-22T00:39:55;101915.50;;;11.39;69.98
69574;BME280;62840;52.366;5.980;2024-03-22T00:42:21;101910.16;;;11.39;70.08
69574;BME280;62840;52.366;5.980;2024-03-22T00:44:47;101897.56;;;11.41;70.00
69574;BME280;62840;52.366;5.980;2024-03-22T00:47:13;101906.31;;;11.43;70.07
69574;BME280;62840;52.366;5.980;2024-03-22T00:49:41;101897.34;;;11.44;70.04
69574;BME280;62840;52.366;5.980;2024-03-22T00:52:08;101893.72;;;11.45;70.16
69574;BME280;62840;52.366;5.980;2024-03-22T00:54:33;101892.75;;;11.46;70.16
69574;BME280;62840;52.366;5.980;2024-03-22T00:56:59;101877.47;;;11.48;70.09
69574;BME280;62840;52.366;5.980;2024-03-22T00:59:25;101874.78;;;11.48;70.24
69574;BME280;62840;52.366;5.980;2024-03-22T01:01:51;101866.78;;;11.48;70.39
69574;BME280;62840;52.366;5.980;2024-03-22T01:04:17;101860.34;;;11.51;70.25
69574;BME280;62840;52.366;5.980;2024-03-22T01:06:45;101857.78;;;11.49;70.12
69574;BME280;62840;52.366;5.980;2024-03-22T01:09:11;101855.88;;;11.52;70.21
69574;BME280;62840;52.366;5.980;2024-03-22T01:11:37;101848.81;;;11.50;70.45
69574;BME280;62840;52.366;5.980;2024-03-22T01:14:03;101852.34;;;11.51;70.48
69574;BME280;62840;52.366;5.980;2024-03-22T01:16:29;101854.91;;;11.53;70.44
69574;BME280;62840;52.366;5.980;2024-03-22T01:18:55;101846.91;;;11.53;70.38
69574;BME280;62840;52.366;5.980;2024-03-22T01:21:20;101845.94;;;11.54;70.31
69574;BME280;62840;52.366;5.980;2024-03-22T01:23:49;101862.69;;;11.56;70.57
69574;BME280;62840;52.366;5.980;2024-03-22T01:26:15;101857.25;;;11.57;70.52
69574;BME280;62840;52.366;5.980;2024-03-22T01:28:41;101857.16;;;11.59;70.38
69574;BME280;62840;52.366;5.980;2024-03-22T01:31:06;101841.13;;;11.59;70.43
69574;BME280;62840;52.366;5.980;2024-03-22T01:33:32;101835.78;;;11.59;70.51
69574;BME280;62840;52.366;5.980;2024-03-22T01:35:58;101840.16;;;11.60;70.60
69574;BME280;62840;52.366;5.980;2024-03-22T01:38:24;101845.50;;;11.60;70.75
69574;BME280;62840;52.366;5.980;2024-03-22T01:40:52;101839.19;;;11.61;70.41
69574;BME280;62840;52.366;5.980;2024-03-22T01:43:18;101842.72;;;11.61;70.81
69574;BME280;62840;52.366;5.980;2024-03-22T01:45:44;101839.06;;;11.62;70.71
69574;BME280;62840;52.366;5.980;2024-03-22T01:48:11;101833.63;;;11.64;70.47
69574;BME280;62840;52.366;5.980;2024-03-22T01:50:37;101824.66;;;11.65;70.63
69574;BME280;62840;52.366;5.980;2024-03-22T01:53:03;101813.94;;;11.65;70.91
69574;BME280;62840;52.366;5.980;2024-03-22T01:55:31;101815.69;;;11.66;71.02
69574;BME280;62840;52.366;5.980;2024-03-22T01:57:59;101814.69;;;11.67;70.80
69574;BME280;62840;52.366;5.980;2024-03-22T02:00:25;101817.38;;;11.67;70.90
69574;BME280;62840;52.366;5.980;2024-03-22T02:02:51;101826.13;;;11.69;70.78
69574;BME280;62840;52.366;5.980;2024-03-22T02:05:17;101811.81;;;11.70;71.09
69574;BME280;62840;52.366;5.980;2024-03-22T02:07:44;101817.16;;;11.70;70.94
69574;BME280;62840;52.366;5.980;2024-03-22T02:10:10;101808.19;;;11.71;70.93
69574;BME280;62840;52.366;5.980;2024-03-22T02:12:37;101813.53;;;11.71;71.06
69574;BME280;62840;52.366;5.980;2024-03-22T02:15:07;101805.50;;;11.71;71.05
69574;BME280;62840;52.366;5.980;2024-03-22T02:17:34;101802.84;;;11.71;70.85
69574;BME280;62840;52.366;5.980;2024-03-22T02:20:00;101799.31;;;11.70;71.12
69574;BME280;62840;52.366;5.980;2024-03-22T02:22:27;101809.88;;;11.72;71.06
69574;BME280;62840;52.366;5.980;2024-03-22T02:24:56;101793.84;;;11.72;71.02
69574;BME280;62840;52.366;5.980;2024-03-22T02:27:21;101792.16;;;11.71;71.02
69574;BME280;62840;52.366;5.980;2024-03-22T02:29:47;101796.50;;;11.72;71.14
69574;BME280;62840;52.366;5.980;2024-03-22T02:32:13;101794.91;;;11.69;71.29
69574;BME280;62840;52.366;5.980;2024-03-22T02:34:39;101789.72;;;11.68;71.18
69574;BME280;62840;52.366;5.980;2024-03-22T02:37:05;101781.69;;;11.68;71.36
69574;BME280;62840;52.366;5.980;2024-03-22T02:39:31;101780.81;;;11.67;71.41
69574;BME280;62840;52.366;5.980;2024-03-22T02:41:59;101771.00;;;11.68;71.13
69574;BME280;62840;52.366;5.980;2024-03-22T02:44:25;101774.41;;;11.70;71.13
69574;BME280;62840;52.366;5.980;2024-03-22T02:46:51;101763.72;;;11.70;71.07
69574;BME280;62840;52.366;5.980;2024-03-22T02:49:17;101766.25;;;11.71;70.97
69574;BME280;62840;52.366;5.980;2024-03-22T02:51:43;101760.06;;;11.71;71.21
69574;BME280;62840;52.366;5.980;2024-03-22T02:54:09;101759.22;;;11.70;71.10
69574;BME280;62840;52.366;5.980;2024-03-22T02:56:34;101746.72;;;11.71;71.25
69574;BME280;62840;52.366;5.980;2024-03-22T02:59:03;101733.34;;;11.71;71.05
69574;BME280;62840;52.366;5.980;2024-03-22T03:01:29;101725.34;;;11.71;71.24
69574;BME280;62840;52.366;5.980;2024-03-22T03:03:55;101724.34;;;11.72;71.32
69574;BME280;62840;52.366;5.980;2024-03-22T03:06:21;101711.97;;;11.71;71.32
69574;BME280;62840;52.366;5.980;2024-03-22T03:08:46;101706.63;;;11.71;71.44
69574;BME280;62840;52.366;5.980;2024-03-22T03:11:13;101703.22;;;11.69;71.59
69574;BME280;62840;52.366;5.980;2024-03-22T03:13:39;101701.28;;;11.71;71.41
69574;BME280;62840;52.366;5.980;2024-03-22T03:16:08;101694.25;;;11.70;71.28
69574;BME280;62840;52.366;5.980;2024-03-22T03:18:34;101699.59;;;11.70;71.51
69574;BME280;62840;52.366;5.980;2024-03-22T03:21:00;101674.66;;;11.69;71.51
69574;BME280;62840;52.366;5.980;2024-03-22T03:23:26;101672.00;;;11.69;71.47
69574;BME280;62840;52.366;5.980;2024-03-22T03:25:52;101664.84;;;11.70;71.54
69574;BME280;62840;52.366;5.980;2024-03-22T03:28:17;101652.34;;;11.70;71.28
69574;BME280;62840;52.366;5.980;2024-03-22T03:30:43;101658.53;;;11.71;71.35
69574;BME280;62840;52.366;5.980;2024-03-22T03:33:12;101653.19;;;11.71;71.34
69574;BME280;62840;52.366;5.980;2024-03-22T03:35:37;101662.91;;;11.72;71.41
69574;BME280;62840;52.366;5.980;2024-03-22T03:38:03;101654.88;;;11.72;71.29
69574;BME280;62840;52.366;5.980;2024-03-22T03:40:29;101656.84;;;11.70;71.58
69574;BME280;62840;52.366;5.980;2024-03-22T03:42:55;101668.38;;;11.70;71.74
69574;BME280;62840;52.366;5.980;2024-03-22T03:45:21;101662.19;;;11.70;71.44
69574;BME280;62840;52.366;5.980;2024-03-22T03:47:47;101667.41;;;11.71;71.56
69574;BME280;62840;52.366;5.980;2024-03-22T03:50:16;101649.53;;;11.72;71.46
69574;BME280;62840;52.366;5.980;2024-03-22T03:52:41;101633.50;;;11.72;71.58
69574;BME280;62840;52.366;5.980;2024-03-22T03:55:07;101638.84;;;11.72;71.51
69574;BME280;62840;52.366;5.980;2024-03-22T03:57:33;101638.00;;;11.71;71.52
69574;BME280;62840;52.366;5.980;2024-03-22T03:59:59;101641.50;;;11.72;71.58
69574;BME280;62840;52.366;5.980;2024-03-22T04:02:25;101642.50;;;11.71;71.74
69574;BME280;62840;52.366;5.980;2024-03-22T04:04:52;101648.69;;;11.71;71.75
69574;BME280;62840;52.366;5.980;2024-03-22T04:07:20;101643.47;;;11.70;71.59
69574;BME280;62840;52.366;5.980;2024-03-22T04:09:46;101635.47;;;11.70;71.68
69574;BME280;62840;52.366;5.980;2024-03-22T04:12:12;101631.81;;;11.71;71.73
69574;BME280;62840;52.366;5.980;2024-03-22T04:14:38;101637.16;;;11.71;71.60
69574;BME280;62840;52.366;5.980;2024-03-22T04:17:04;101634.47;;;11.71;71.55
69574;BME280;62840;52.366;5.980;2024-03-22T04:19:30;101637.16;;;11.71;71.36
69574;BME280;62840;52.366;5.980;2024-03-22T04:21:56;101636.31;;;11.70;71.61
69574;BME280;62840;52.366;5.980;2024-03-22T04:24:24;101629.13;;;11.71;71.69
69574;BME280;62840;52.366;5.980;2024-03-22T04:26:50;101630.22;;;11.68;71.57
69574;BME280;62840;52.366;5.980;2024-03-22T04:29:16;101633.97;;;11.66;71.65
69574;BME280;62840;52.366;5.980;2024-03-22T04:31:42;101633.13;;;11.65;71.57
69574;BME280;62840;52.366;5.980;2024-03-22T04:34:08;101621.81;;;11.62;71.77
69574;BME280;62840;52.366;5.980;2024-03-22T04:36:34;101626.53;;;11.58;71.82
69574;BME280;62840;52.366;5.980;2024-03-22T04:38:59;101638.09;;;11.59;71.79
69574;BME280;62840;52.366;5.980;2024-03-22T04:41:28;101631.00;;;11.58;71.51
69574;BME280;62840;52.366;5.980;2024-03-22T04:43:54;101639.03;;;11.58;71.65
69574;BME280;62840;52.366;5.980;2024-03-22T04:46:20;101635.50;;;11.57;71.71
69574;BME280;62840;52.366;5.980;2024-03-22T04:48:45;101636.34;;;11.58;71.61
69574;BME280;62840;52.366;5.980;2024-03-22T04:51:11;101633.69;;;11.58;71.46
69574;BME280;62840;52.366;5.980;2024-03-22T04:53:37;101630.06;;;11.59;71.55
69574;BME280;62840;52.366;5.980;2024-03-22T04:56:04;101625.66;;;11.58;71.52
69574;BME280;62840;52.366;5.980;2024-03-22T04:58:33;101632.75;;;11.59;71.39
69574;BME280;62840;52.366;5.980;2024-03-22T05:01:00;101632.84;;;11.57;71.41
69574;BME280;62840;52.366;5.980;2024-03-22T05:03:26;101626.53;;;11.58;71.51
69574;BME280;62840;52.366;5.980;2024-03-22T05:05:52;101627.41;;;11.59;71.44
69574;BME280;62840;52.366;5.980;2024-03-22T05:08:18;101625.66;;;11.58;71.70
69574;BME280;62840;52.366;5.980;2024-03-22T05:10:43;101627.59;;;11.56;71.62
69574;BME280;62840;52.366;5.980;2024-03-22T05:13:09;101633.19;;;11.53;71.43
69574;BME280;62840;52.366;5.980;2024-03-22T05:15:38;101629.78;;;11.50;71.26
69574;BME280;62840;52.366;5.980;2024-03-22T05:18:04;101631.47;;;11.52;71.40
69574;BME280;62840;52.366;5.980;2024-03-22T05:20:30;101631.47;;;11.52;71.30
69574;BME280;62840;52.366;5.980;2024-03-22T05:22:56;101627.84;;;11.53;71.22
69574;BME280;62840;52.366;5.980;2024-03-22T05:25:22;101621.00;;;11.48;71.15
69574;BME280;62840;52.366;5.980;2024-03-22T05:27:48;101622.94;;;11.46;71.17
69574;BME280;62840;52.366;5.980;2024-03-22T05:30:14;101628.28;;;11.46;71.24
69574;BME280;62840;52.366;5.980;2024-03-22T05:32:42;101629.28;;;11.45;71.15
69574;BME280;62840;52.366;5.980;2024-03-22T05:35:08;101614.94;;;11.46;71.13
69574;BME280;62840;52.366;5.980;2024-03-22T05:37:34;101612.50;;;11.43;71.17
69574;BME280;62840;52.366;5.980;2024-03-22T05:40:00;101612.50;;;11.43;71.36
69574;BME280;62840;52.366;5.980;2024-03-22T05:42:26;101610.78;;;11.42;71.17
69574;BME280;62840;52.366;5.980;2024-03-22T05:44:52;101607.25;;;11.42;71.04
69574;BME280;62840;52.366;5.980;2024-03-22T05:47:18;101605.44;;;11.42;71.25
69574;BME280;62840;52.366;5.980;2024-03-22T05:49:46;101599.16;;;11.43;70.92
69574;BME280;62840;52.366;5.980;2024-03-22T05:52:12;101597.56;;;11.41;70.95
69574;BME280;62840;52.366;5.980;2024-03-22T05:54:38;101592.31;;;11.39;71.15
69574;BME280;62840;52.366;5.980;2024-03-22T05:57:04;101600.34;;;11.39;70.85
69574;BME280;62840;52.366;5.980;2024-03-22T05:59:30;101596.06;;;11.37;71.14
69574;BME280;62840;52.366;5.980;2024-03-22T06:01:56;101594.34;;;11.36;71.00
69574;BME280;62840;52.366;5.980;2024-03-22T06:04:22;101593.50;;;11.35;71.10
69574;BME280;62840;52.366;5.980;2024-03-22T06:06:51;101589.88;;;11.36;71.13
69574;BME280;62840;52.366;5.980;2024-03-22T06:09:16;101585.50;;;11.35;71.14
69574;BME280;62840;52.366;5.980;2024-03-22T06:11:42;101582.81;;;11.35;71.04
69574;BME280;62840;52.366;5.980;2024-03-22T06:14:08;101574.06;;;11.33;70.93
69574;BME280;62840;52.366;5.980;2024-03-22T06:16:34;101582.22;;;11.32;71.12
69574;BME280;62840;52.366;5.980;2024-03-22T06:19:00;101580.50;;;11.31;70.77
69574;BME280;62840;52.366;5.980;2024-03-22T06:21:26;101585.00;;;11.30;70.89
69574;BME280;62840;52.366;5.980;2024-03-22T06:23:54;101589.59;;;11.28;70.93
69574;BME280;62840;52.366;5.980;2024-03-22T06:26:20;101585.19;;;11.27;70.96
69574;BME280;62840;52.366;5.980;2024-03-22T06:28:46;101588.00;;;11.25;71.17
69574;BME280;62840;52.366;5.980;2024-03-22T06:31:12;101586.19;;;11.26;70.92
69574;BME280;62840;52.366;5.980;2024-03-22T06:33:38;101583.28;;;11.29;70.87
69574;BME280;62840;52.366;5.980;2024-03-22T06:36:04;101586.69;;;11.31;70.87
69574;BME280;62840;52.366;5.980;2024-03-22T06:38:30;101577.94;;;11.29;70.69
69574;BME280;62840;52.366;5.980;2024-03-22T06:40:59;101587.66;;;11.30;70.88
69574;BME280;62840;52.366;5.980;2024-03-22T06:43:25;101587.56;;;11.32;70.78
69574;BME280;62840;52.366;5.980;2024-03-22T06:45:51;101590.09;;;11.33;70.80
69574;BME280;62840;52.366;5.980;2024-03-22T06:48:17;101593.75;;;11.32;70.70
69574;BME280;62840;52.366;5.980;2024-03-22T06:50:43;101582.81;;;11.35;70.62
69574;BME280;62840;52.366;5.980;2024-03-22T06:53:09;101581.13;;;11.34;70.53
69574;BME280;62840;52.366;5.980;2024-03-22T06:55:34;101593.50;;;11.35;70.41
69574;BME280;62840;52.366;5.980;2024-03-22T06:58:03;101588.91;;;11.37;70.45
69574;BME280;62840;52.366;5.980;2024-03-22T07:00:29;101585.06;;;11.41;70.42
69574;BME280;62840;52.366;5.980;2024-03-22T07:02:55;101583.13;;;11.43;70.49
69574;BME280;62840;52.366;5.980;2024-03-22T07:05:21;101581.94;;;11.47;70.43
69574;BME280;62840;52.366;5.980;2024-03-22T07:07:47;101581.69;;;11.50;70.47
69574;BME280;62840;52.366;5.980;2024-03-22T07:10:13;101577.09;;;11.53;70.32
69574;BME280;62840;52.366;5.980;2024-03-22T07:12:39;101584.84;;;11.56;70.14
69574;BME280;62840;52.366;5.980;2024-03-22T07:15:09;101568.81;;;11.56;70.14
69574;BME280;62840;52.366;5.980;2024-03-22T07:17:34;101572.47;;;11.55;70.03
69574;BME280;62840;52.366;5.980;2024-03-22T07:20:00;101563.50;;;11.56;70.08
69574;BME280;62840;52.366;5.980;2024-03-22T07:22:26;101569.69;;;11.56;69.91
69574;BME280;62840;52.366;5.980;2024-03-22T07:24:52;101572.47;;;11.55;69.93
69574;BME280;62840;52.366;5.980;2024-03-22T07:27:18;101571.50;;;11.56;70.13
69574;BME280;62840;52.366;5.980;2024-03-22T07:29:44;101564.34;;;11.56;69.86
69574;BME280;62840;52.366;5.980;2024-03-22T07:32:13;101564.34;;;11.56;70.13
69574;BME280;62840;52.366;5.980;2024-03-22T07:34:39;101559.88;;;11.57;70.17
69574;BME280;62840;52.366;5.980;2024-03-22T07:37:05;101556.22;;;11.58;69.88
69574;BME280;62840;52.366;5.980;2024-03-22T07:39:31;101571.41;;;11.57;69.97
69574;BME280;62840;52.366;5.980;2024-03-22T07:41:57;101563.28;;;11.59;69.85
69574;BME280;62840;52.366;5.980;2024-03-22T07:44:23;101559.72;;;11.58;69.83
69574;BME280;62840;52.366;5.980;2024-03-22T07:46:49;101553.53;;;11.58;69.82
69574;BME280;62840;52.366;5.980;2024-03-22T07:49:17;101557.94;;;11.59;69.92
69574;BME280;62840;52.366;5.980;2024-03-22T07:51:43;101559.63;;;11.60;69.94
69574;BME280;62840;52.366;5.980;2024-03-22T07:54:09;101561.31;;;11.61;69.66
69574;BME280;62840;52.366;5.980;2024-03-22T07:56:34;101568.38;;;11.62;69.62
69574;BME280;62840;52.366;5.980;2024-03-22T07:59:00;101561.31;;;11.61;69.55
69574;BME280;62840;52.366;5.980;2024-03-22T08:01:26;101566.44;;;11.64;69.60
69574;BME280;62840;52.366;5.980;2024-03-22T08:03:52;101559.38;;;11.63;69.60
69574;BME280;62840;52.366;5.980;2024-03-22T08:06:21;101569.22;;;11.62;69.74
69574;BME280;62840;52.366;5.980;2024-03-22T08:08:46;101563.66;;;11.65;69.96
69574;BME280;62840;52.366;5.980;2024-03-22T08:11:12;101561.84;;;11.66;69.81
69574;BME280;62840;52.366;5.980;2024-03-22T08:13:38;101560.84;;;11.67;69.62
69574;BME280;62840;52.366;5.980;2024-03-22T08:16:05;101559.16;;;11.66;69.47
69574;BME280;62840;52.366;5.980;2024-03-22T08:18:31;101570.69;;;11.66;69.44
69574;BME280;62840;52.366;5.980;2024-03-22T08:20:57;101565.69;;;11.62;69.44
69574;BME280;62840;52.366;5.980;2024-03-22T08:23:25;101578.22;;;11.61;69.43
69574;BME280;62840;52.366;5.980;2024-03-22T08:25:51;101566.66;;;11.61;69.72
69574;BME280;62840;52.366;5.980;2024-03-22T08:28:17;101571.06;;;11.62;69.59
69574;BME280;62840;52.366;5.980;2024-03-22T08:30:43;101571.78;;;11.64;69.66
69574;BME280;62840;52.366;5.980;2024-03-22T08:33:09;101571.78;;;11.64;69.83
69574;BME280;62840;52.366;5.980;2024-03-22T08:35:35;101566.44;;;11.64;69.44
69574;BME280;62840;52.366;5.980;2024-03-22T08:38:01;101574.56;;;11.62;69.31
69574;BME280;62840;52.366;5.980;2024-03-22T08:40:29;101560.47;;;11.60;69.47
69574;BME280;62840;52.366;5.980;2024-03-22T08:42:55;101565.94;;;11.59;69.58
69574;BME280;62840;52.366;5.980;2024-03-22T08:45:21;101563.28;;;11.59;69.69
69574;BME280;62840;52.366;5.980;2024-03-22T08:47:47;101559.88;;;11.57;69.64
69574;BME280;62840;52.366;5.980;2024-03-22T08:50:13;101557.41;;;11.54;69.86
69574;BME280;62840;52.366;5.980;2024-03-22T08:52:39;101559.13;;;11.55;69.79
69574;BME280;62840;52.366;5.980;2024-03-22T08:55:05;101573.31;;;11.55;69.99
69574;BME280;62840;52.366;5.980;2024-03-22T08:57:34;101563.50;;;11.56;70.26
69574;BME280;62840;52.366;5.980;2024-03-22T09:00:00;101567.97;;;11.55;70.33
69574;BME280;62840;52.366;5.980;2024-03-22T09:02:26;101566.41;;;11.53;70.27
69574;BME280;62840;52.366;5.980;2024-03-22T09:04:51;101561.41;;;11.48;70.48
69574;BME280;62840;52.366;5.980;2024-03-22T09:07:17;101566.75;;;11.48;70.70
69574;BME280;62840;52.366;5.980;2024-03-22T09:09:43;101569.41;;;11.48;71.01
69574;BME280;62840;52.366;5.980;2024-03-22T09:12:09;101568.69;;;11.46;71.03
69574;BME280;62840;52.366;5.980;2024-03-22T09:14:37;101570.50;;;11.45;71.06
69574;BME280;62840;52.366;5.980;2024-03-22T09:17:04;101562.50;;;11.45;71.35
69574;BME280;62840;52.366;5.980;2024-03-22T09:19:29;101560.56;;;11.47;71.31
69574;BME280;62840;52.366;5.980;2024-03-22T09:21:55;101560.56;;;11.47;71.48
69574;BME280;62840;52.366;5.980;2024-03-22T09:24:21;101562.50;;;11.45;71.50
69574;BME280;62840;52.366;5.980;2024-03-22T09:26:47;101557.16;;;11.45;71.77
69574;BME280;62840;52.366;5.980;2024-03-22T09:29:13;101560.78;;;11.44;71.71
69574;BME280;62840;52.366;5.980;2024-03-22T09:31:41;101555.66;;;11.41;71.78
69574;BME280;62840;52.366;5.980;2024-03-22T09:34:07;101565.50;;;11.41;71.87
69574;BME280;62840;52.366;5.980;2024-03-22T09:36:33;101561.22;;;11.38;72.18
69574;BME280;62840;52.366;5.980;2024-03-22T09:38:59;101559.53;;;11.37;72.06
69574;BME280;62840;52.366;5.980;2024-03-22T09:41:25;101561.47;;;11.35;72.21
69574;BME280;62840;52.366;5.980;2024-03-22T09:43:52;101563.38;;;11.33;72.28
69574;BME280;62840;52.366;5.980;2024-03-22T09:46:18;101557.31;;;11.31;72.18
69574;BME280;62840;52.366;5.980;2024-03-22T09:48:47;101551.97;;;11.31;72.47
69574;BME280;62840;52.366;5.980;2024-03-22T09:51:15;101558.03;;;11.33;72.47
69574;BME280;62840;52.366;5.980;2024-03-22T09:53:44;101564.22;;;11.34;72.30
69574;BME280;62840;52.366;5.980;2024-03-22T09:56:11;101552.72;;;11.33;72.44
69574;BME280;62840;52.366;5.980;2024-03-22T09:58:40;101555.50;;;11.32;72.55
69574;BME280;62840;52.366;5.980;2024-03-22T10:01:06;101556.56;;;11.29;72.94
69574;BME280;62840;52.366;5.980;2024-03-22T10:03:32;101549.28;;;11.31;72.78
69574;BME280;62840;52.366;5.980;2024-03-22T10:06:00;101550.78;;;11.35;72.92
69574;BME280;62840;52.366;5.980;2024-03-22T10:08:26;101542.53;;;11.38;73.20
69574;BME280;62840;52.366;5.980;2024-03-22T10:10:52;101546.91;;;11.39;73.07
69574;BME280;62840;52.366;5.980;2024-03-22T10:13:18;101548.59;;;11.40;72.89
69574;BME280;62840;52.366;5.980;2024-03-22T10:15:44;101541.34;;;11.42;73.10
69574;BME280;62840;52.366;5.980;2024-03-22T10:18:11;101548.16;;;11.46;73.27
69574;BME280;62840;52.366;5.980;2024-03-22T10:20:37;101548.16;;;11.46;73.10
69574;BME280;62840;52.366;5.980;2024-03-22T10:23:07;101546.47;;;11.45;72.94
69574;BME280;62840;52.366;5.980;2024-03-22T10:25:34;101544.75;;;11.44;72.99
69574;BME280;62840;52.366;5.980;2024-03-22T10:28:00;101546.47;;;11.45;73.28
69574;BME280;62840;52.366;5.980;2024-03-22T10:30:27;101544.53;;;11.47;73.25
69574;BME280;62840;52.366;5.980;2024-03-22T10:32:54;101535.66;;;11.47;73.35
69574;BME280;62840;52.366;5.980;2024-03-22T10:35:21;101535.28;;;11.52;73.35
69574;BME280;62840;52.366;5.980;2024-03-22T10:37:48;101535.28;;;11.52;73.30
69574;BME280;62840;52.366;5.980;2024-03-22T10:40:19;101538.69;;;11.54;73.31
69574;BME280;62840;52.366;5.980;2024-03-22T10:42:46;101538.59;;;11.55;73.55
69574;BME280;62840;52.366;5.980;2024-03-22T10:45:12;101537.50;;;11.58;73.71
69574;BME280;62840;52.366;5.980;2024-03-22T10:47:38;101537.41;;;11.59;73.65
69574;BME280;62840;52.366;5.980;2024-03-22T10:50:06;101539.22;;;11.59;73.55
69574;BME280;62840;52.366;5.980;2024-03-22T10:52:37;101532.06;;;11.59;73.43
69574;BME280;62840;52.366;5.980;2024-03-22T10:55:07;101533.53;;;11.63;73.80
69574;BME280;62840;52.366;5.980;2024-03-22T10:57:41;101544.81;;;11.67;73.62
69574;BME280;62840;52.366;5.980;2024-03-22T11:00:09;101539.25;;;11.70;73.60
69574;BME280;62840;52.366;5.980;2024-03-22T11:02:36;101526.59;;;11.72;73.46
69574;BME280;62840;52.366;5.980;2024-03-22T11:05:03;101528.34;;;11.73;73.62
69574;BME280;62840;52.366;5.980;2024-03-22T11:07:29;101526.41;;;11.75;73.52
69574;BME280;62840;52.366;5.980;2024-03-22T11:09:56;101526.41;;;11.75;73.37
69574;BME280;62840;52.366;5.980;2024-03-22T11:12:24;101520.06;;;11.76;73.51
69574;BME280;62840;52.366;5.980;2024-03-22T11:14:53;101520.06;;;11.76;73.71
69574;BME280;62840;52.366;5.980;2024-03-22T11:17:19;101508.53;;;11.76;73.75
69574;BME280;62840;52.366;5.980;2024-03-22T11:19:45;101514.00;;;11.74;73.66
69574;BME280;62840;52.366;5.980;2024-03-22T11:22:11;101520.06;;;11.76;73.75
69574;BME280;62840;52.366;5.980;2024-03-22T11:24:37;101524.47;;;11.77;73.84
69574;BME280;62840;52.366;5.980;2024-03-22T11:27:03;101519.13;;;11.77;73.84
69574;BME280;62840;52.366;5.980;2024-03-22T11:29:29;101509.28;;;11.78;73.77
69574;BME280;62840;52.366;5.980;2024-03-22T11:31:58;101511.09;;;11.77;73.81
69574;BME280;62840;52.366;5.980;2024-03-22T11:34:24;101503.94;;;11.78;73.85
69574;BME280;62840;52.366;5.980;2024-03-22T11:36:50;101499.44;;;11.78;73.69
69574;BME280;62840;52.366;5.980;2024-03-22T11:39:15;101506.50;;;11.79;73.83
69574;BME280;62840;52.366;5.980;2024-03-22T11:41:42;101503.81;;;11.79;74.06
69574;BME280;62840;52.366;5.980;2024-03-22T11:44:08;101503.56;;;11.82;74.00
69574;BME280;62840;52.366;5.980;2024-03-22T11:46:34;101499.81;;;11.85;73.81
69574;BME280;62840;52.366;5.980;2024-03-22T11:49:02;101499.59;;;11.88;73.86
69574;BME280;62840;52.366;5.980;2024-03-22T11:51:29;101496.78;;;11.89;73.96
69574;BME280;62840;52.366;5.980;2024-03-22T11:53:56;101499.34;;;11.91;74.06
69574;BME280;62840;52.366;5.980;2024-03-22T11:56:22;101491.22;;;11.93;73.96
69574;BME280;62840;52.366;5.980;2024-03-22T11:58:57;101492.91;;;11.94;73.94
69574;BME280;62840;52.366;5.980;2024-03-22T12:01:24;101488.28;;;11.96;74.01
69574;BME280;62840;52.366;5.980;2024-03-22T12:03:50;101487.28;;;11.97;74.22
69574;BME280;62840;52.366;5.980;2024-03-22T12:06:19;101472.97;;;11.98;74.01
69574;BME280;62840;52.366;5.980;2024-03-22T12:08:45;101473.81;;;11.98;73.97
69574;BME280;62840;52.366;5.980;2024-03-22T12:11:11;101467.63;;;11.98;74.07
69574;BME280;62840;52.366;5.980;2024-03-22T12:13:38;101473.72;;;12.00;74.03
69574;BME280;62840;52.366;5.980;2024-03-22T12:16:05;101467.38;;;12.01;73.80
69574;BME280;62840;52.366;5.980;2024-03-22T12:18:31;101471.03;;;12.00;74.02
69574;BME280;62840;52.366;5.980;2024-03-22T12:20:57;101472.72;;;12.01;74.10
69574;BME280;62840;52.366;5.980;2024-03-22T12:23:26;101469.94;;;12.02;74.01
69574;BME280;62840;52.366;5.980;2024-03-22T12:25:52;101465.44;;;12.03;74.31
69574;BME280;62840;52.366;5.980;2024-03-22T12:28:18;101458.41;;;12.02;74.09
69574;BME280;62840;52.366;5.980;2024-03-22T12:30:44;101471.03;;;12.00;73.95
69574;BME280;62840;52.366;5.980;2024-03-22T12:33:10;101465.69;;;12.00;74.19
69574;BME280;62840;52.366;5.980;2024-03-22T12:35:36;101463.13;;;11.98;74.18
69574;BME280;62840;52.366;5.980;2024-03-22T12:38:02;101455.22;;;11.97;74.06
69574;BME280;62840;52.366;5.980;2024-03-22T12:40:31;101450.13;;;11.94;73.90
69574;BME280;62840;52.366;5.980;2024-03-22T12:42:57;101448.44;;;11.93;74.15
69574;BME280;62840;52.366;5.980;2024-03-22T12:45:23;101448.44;;;11.93;74.11